sensor_id;sensor_type;location;lat;lon;timestamp;pressure;altitude;pressure_sealevel;temperature;humidity
36138;BME280;67787;50.074;21.904;2023-04-23T00:01:57;98894.40;;;6.90;53.51
36138;BME280;67787;50.074;21.904;2023-04-23T00:04:27;98893.45;;;6.91;53.39
36138;BME280;67787;50.074;21.904;2023-04-23T00:06:56;98893.20;;;6.92;53.75
36138;BME280;67787;50.074;21.904;2023-04-23T00:09:26;98891.02;;;6.84;53.76
36138;BME280;67787;50.074;21.904;2023-04-23T00:11:57;98889.83;;;6.77;53.97
36138;BME280;67787;50.074;21.904;2023-04-23T00:14:25;98887.93;;;6.71;53.85
36138;BME280;67787;50.074;21.904;2023-04-23T00:16:53;98886.15;;;6.65;53.84
36138;BME280;67787;50.074;21.904;2023-04-23T00:19:22;98882.52;;;6.64;54.12
36138;BME280;67787;50.074;21.904;2023-04-23T00:21:50;98883.70;;;6.62;53.93
36138;BME280;67787;50.074;21.904;2023-04-23T00:24:19;98883.05;;;6.61;53.96
36138;BME280;67787;50.074;21.904;2023-04-23T00:26:46;98882.52;;;6.61;54.31
36138;BME280;67787;50.074;21.904;2023-04-23T00:29:14;98878.06;;;6.59;54.20
36138;BME280;67787;50.074;21.904;2023-04-23T00:31:42;98879.13;;;6.55;54.11
36138;BME280;67787;50.074;21.904;2023-04-23T00:34:11;98878.71;;;6.54;54.40
36138;BME280;67787;50.074;21.904;2023-04-23T00:36:39;98875.16;;;6.51;54.15
36138;BME280;67787;50.074;21.904;2023-04-23T00:39:07;98874.34;;;6.48;54.37
36138;BME280;67787;50.074;21.904;2023-04-23T00:41:35;98873.05;;;6.48;54.31
36138;BME280;67787;50.074;21.904;2023-04-23T00:44:02;98871.08;;;6.52;54.55
36138;BME280;67787;50.074;21.904;2023-04-23T00:46:31;98866.52;;;6.48;54.42
36138;BME280;67787;50.074;21.904;2023-04-23T00:48:59;98867.48;;;6.47;54.39
36138;BME280;67787;50.074;21.904;2023-04-23T00:51:28;98869.48;;;6.46;54.49
36138;BME280;67787;50.074;21.904;2023-04-23T00:53:57;98867.77;;;6.42;54.47
36138;BME280;67787;50.074;21.904;2023-04-23T00:56:25;98866.27;;;6.37;54.46
36138;BME280;67787;50.074;21.904;2023-04-23T00:58:54;98868.41;;;6.31;54.72
36138;BME280;67787;50.074;21.904;2023-04-23T01:01:22;98870.17;;;6.25;54.82
36138;BME280;67787;50.074;21.904;2023-04-23T01:03:51;98868.45;;;6.21;54.86
36138;BME280;67787;50.074;21.904;2023-04-23T01:06:21;98869.63;;;6.16;54.97
36138;BME280;67787;50.074;21.904;2023-04-23T01:08:51;98867.02;;;6.09;55.00
36138;BME280;67787;50.074;21.904;2023-04-23T01:11:19;98868.33;;;6.05;54.96
36138;BME280;67787;50.074;21.904;2023-04-23T01:13:47;98868.92;;;6.03;55.09
36138;BME280;67787;50.074;21.904;2023-04-23T01:16:15;98864.30;;;6.01;55.28
36138;BME280;67787;50.074;21.904;2023-04-23T01:18:44;98867.52;;;6.00;55.35
36138;BME280;67787;50.074;21.904;2023-04-23T01:21:13;98868.08;;;5.99;55.40
36138;BME280;67787;50.074;21.904;2023-04-23T01:23:41;98866.98;;;5.97;55.34
36138;BME280;67787;50.074;21.904;2023-04-23T01:26:09;98866.56;;;5.95;54.98
36138;BME280;67787;50.074;21.904;2023-04-23T01:28:38;98866.18;;;5.99;55.29
36138;BME280;67787;50.074;21.904;2023-04-23T01:31:09;98865.15;;;5.98;55.37
36138;BME280;67787;50.074;21.904;2023-04-23T01:33:41;98870.39;;;5.96;55.48
36138;BME280;67787;50.074;21.904;2023-04-23T01:36:10;98873.27;;;5.91;55.59
36138;BME280;67787;50.074;21.904;2023-04-23T01:38:38;98869.78;;;5.88;55.56
36138;BME280;67787;50.074;21.904;2023-04-23T01:41:07;98869.27;;;5.84;55.49
36138;BME280;67787;50.074;21.904;2023-04-23T01:43:36;98870.54;;;5.87;55.36
36138;BME280;67787;50.074;21.904;2023-04-23T01:46:05;98870.29;;;5.91;55.50
36138;BME280;67787;50.074;21.904;2023-04-23T01:48:33;98867.85;;;5.91;55.69
36138;BME280;67787;50.074;21.904;2023-04-23T01:51:04;98869.71;;;5.86;55.67
36138;BME280;67787;50.074;21.904;2023-04-23T01:53:32;98869.14;;;5.84;55.83
36138;BME280;67787;50.074;21.904;2023-04-23T01:56:00;98863.59;;;5.79;55.75
36138;BME280;67787;50.074;21.904;2023-04-23T01:58:29;98867.04;;;5.77;55.85
36138;BME280;67787;50.074;21.904;2023-04-23T02:00:57;98865.57;;;5.72;55.79
36138;BME280;67787;50.074;21.904;2023-04-23T02:03:27;98866.02;;;5.70;55.95
36138;BME280;67787;50.074;21.904;2023-04-23T02:05:59;98866.41;;;5.72;56.07
36138;BME280;67787;50.074;21.904;2023-04-23T02:08:27;98864.60;;;5.76;55.77
36138;BME280;67787;50.074;21.904;2023-04-23T02:10:55;98863.54;;;5.80;55.97
36138;BME280;67787;50.074;21.904;2023-04-23T02:13:24;98863.86;;;5.80;56.10
36138;BME280;67787;50.074;21.904;2023-04-23T02:15:52;98859.17;;;5.79;56.23
36138;BME280;67787;50.074;21.904;2023-04-23T02:18:20;98863.21;;;5.76;56.24
36138;BME280;67787;50.074;21.904;2023-04-23T02:20:48;98858.31;;;5.73;56.22
36138;BME280;67787;50.074;21.904;2023-04-23T02:23:16;98854.40;;;5.70;56.43
36138;BME280;67787;50.074;21.904;2023-04-23T02:25:44;98852.23;;;5.68;56.15
36138;BME280;67787;50.074;21.904;2023-04-23T02:28:13;98853.79;;;5.69;56.07
36138;BME280;67787;50.074;21.904;2023-04-23T02:30:41;98855.48;;;5.66;56.51
36138;BME280;67787;50.074;21.904;2023-04-23T02:33:14;98853.58;;;5.63;56.40
36138;BME280;67787;50.074;21.904;2023-04-23T02:35:42;98852.30;;;5.60;56.26
36138;BME280;67787;50.074;21.904;2023-04-23T02:38:10;98854.67;;;5.59;56.11
36138;BME280;67787;50.074;21.904;2023-04-23T02:40:38;98850.56;;;5.56;56.21
36138;BME280;67787;50.074;21.904;2023-04-23T02:43:07;98850.54;;;5.54;56.43
36138;BME280;67787;50.074;21.904;2023-04-23T02:45:35;98850.77;;;5.53;56.21
36138;BME280;67787;50.074;21.904;2023-04-23T02:48:03;98848.34;;;5.49;56.44
36138;BME280;67787;50.074;21.904;2023-04-23T02:50:31;98847.02;;;5.44;56.71
36138;BME280;67787;50.074;21.904;2023-04-23T02:52:59;98844.92;;;5.38;56.67
36138;BME280;67787;50.074;21.904;2023-04-23T02:55:27;98844.60;;;5.34;56.81
36138;BME280;67787;50.074;21.904;2023-04-23T02:57:59;98849.48;;;5.35;56.84
36138;BME280;67787;50.074;21.904;2023-04-23T03:00:27;98846.88;;;5.34;56.84
36138;BME280;67787;50.074;21.904;2023-04-23T03:02:55;98844.73;;;5.34;56.74
36138;BME280;67787;50.074;21.904;2023-04-23T03:05:24;98844.10;;;5.33;57.20
36138;BME280;67787;50.074;21.904;2023-04-23T03:07:51;98846.50;;;5.31;57.22
36138;BME280;67787;50.074;21.904;2023-04-23T03:10:20;98845.13;;;5.30;56.83
36138;BME280;67787;50.074;21.904;2023-04-23T03:12:48;98847.36;;;5.31;57.15
36138;BME280;67787;50.074;21.904;2023-04-23T03:15:16;98842.15;;;5.27;57.33
36138;BME280;67787;50.074;21.904;2023-04-23T03:17:44;98843.13;;;5.25;57.42
36138;BME280;67787;50.074;21.904;2023-04-23T03:20:13;98844.40;;;5.21;57.37
36138;BME280;67787;50.074;21.904;2023-04-23T03:22:41;98846.66;;;5.15;57.45
36138;BME280;67787;50.074;21.904;2023-04-23T03:25:09;98848.27;;;5.11;57.37
36138;BME280;67787;50.074;21.904;2023-04-23T03:27:38;98847.23;;;5.11;57.49
36138;BME280;67787;50.074;21.904;2023-04-23T03:30:07;98853.70;;;5.09;57.65
36138;BME280;67787;50.074;21.904;2023-04-23T03:32:36;98854.48;;;5.07;57.79
36138;BME280;67787;50.074;21.904;2023-04-23T03:35:04;98853.34;;;5.05;57.68
36138;BME280;67787;50.074;21.904;2023-04-23T03:37:32;98856.88;;;5.05;57.70
36138;BME280;67787;50.074;21.904;2023-04-23T03:40:00;98857.55;;;5.05;57.83
36138;BME280;67787;50.074;21.904;2023-04-23T03:42:34;98856.65;;;5.09;57.82
36138;BME280;67787;50.074;21.904;2023-04-23T03:45:02;98856.73;;;5.11;58.06
36138;BME280;67787;50.074;21.904;2023-04-23T03:47:31;98855.51;;;5.11;58.08
36138;BME280;67787;50.074;21.904;2023-04-23T03:49:59;98854.00;;;5.13;57.99
36138;BME280;67787;50.074;21.904;2023-04-23T03:52:35;98852.88;;;5.14;58.15
36138;BME280;67787;50.074;21.904;2023-04-23T03:55:03;98852.01;;;5.17;58.09
36138;BME280;67787;50.074;21.904;2023-04-23T03:57:32;98852.07;;;5.19;58.23
36138;BME280;67787;50.074;21.904;2023-04-23T04:00:00;98850.92;;;5.25;57.87
36138;BME280;67787;50.074;21.904;2023-04-23T04:02:29;98853.61;;;5.30;58.10
36138;BME280;67787;50.074;21.904;2023-04-23T04:04:58;98857.20;;;5.35;58.20
36138;BME280;67787;50.074;21.904;2023-04-23T04:07:26;98859.31;;;5.35;58.33
36138;BME280;67787;50.074;21.904;2023-04-23T04:09:55;98860.23;;;5.34;58.44
36138;BME280;67787;50.074;21.904;2023-04-23T04:12:23;98860.48;;;5.36;58.39
36138;BME280;67787;50.074;21.904;2023-04-23T04:14:50;98858.66;;;5.44;58.40
36138;BME280;67787;50.074;21.904;2023-04-23T04:17:19;98857.45;;;5.53;58.49
36138;BME280;67787;50.074;21.904;2023-04-23T04:19:47;98862.16;;;5.60;58.64
36138;BME280;67787;50.074;21.904;2023-04-23T04:22:15;98864.08;;;5.64;58.64
36138;BME280;67787;50.074;21.904;2023-04-23T04:24:43;98865.63;;;5.67;58.71
36138;BME280;67787;50.074;21.904;2023-04-23T04:27:14;98866.68;;;5.70;58.66
36138;BME280;67787;50.074;21.904;2023-04-23T04:29:43;98868.77;;;5.77;58.66
36138;BME280;67787;50.074;21.904;2023-04-23T04:32:11;98865.77;;;5.84;58.63
36138;BME280;67787;50.074;21.904;2023-04-23T04:34:40;98867.04;;;5.89;58.79
36138;BME280;67787;50.074;21.904;2023-04-23T04:37:08;98863.59;;;5.94;58.98
36138;BME280;67787;50.074;21.904;2023-04-23T04:39:38;98865.11;;;5.99;59.01
36138;BME280;67787;50.074;21.904;2023-04-23T04:42:06;98864.08;;;6.05;58.96
36138;BME280;67787;50.074;21.904;2023-04-23T04:44:34;98861.01;;;6.13;59.02
36138;BME280;67787;50.074;21.904;2023-04-23T04:47:05;98858.68;;;6.22;58.85
36138;BME280;67787;50.074;21.904;2023-04-23T04:49:34;98854.81;;;6.34;59.28
36138;BME280;67787;50.074;21.904;2023-04-23T04:52:02;98856.92;;;6.47;59.18
36138;BME280;67787;50.074;21.904;2023-04-23T04:54:31;98852.50;;;6.59;59.14
36138;BME280;67787;50.074;21.904;2023-04-23T04:56:59;98847.36;;;6.71;59.25
36138;BME280;67787;50.074;21.904;2023-04-23T04:59:29;98851.15;;;6.85;59.17
36138;BME280;67787;50.074;21.904;2023-04-23T05:01:56;98850.27;;;6.96;59.34
36138;BME280;67787;50.074;21.904;2023-04-23T05:04:25;98855.95;;;7.07;59.51
36138;BME280;67787;50.074;21.904;2023-04-23T05:06:53;98857.69;;;7.19;59.62
36138;BME280;67787;50.074;21.904;2023-04-23T05:09:22;98858.94;;;7.30;59.40
36138;BME280;67787;50.074;21.904;2023-04-23T05:11:49;98857.21;;;7.41;59.63
36138;BME280;67787;50.074;21.904;2023-04-23T05:14:18;98859.48;;;7.50;59.52
36138;BME280;67787;50.074;21.904;2023-04-23T05:16:46;98857.55;;;7.61;59.48
36138;BME280;67787;50.074;21.904;2023-04-23T05:19:14;98854.98;;;7.71;59.31
36138;BME280;67787;50.074;21.904;2023-04-23T05:21:42;98854.45;;;7.82;59.66
36138;BME280;67787;50.074;21.904;2023-04-23T05:24:10;98853.02;;;7.94;59.61
36138;BME280;67787;50.074;21.904;2023-04-23T05:26:38;98851.71;;;8.03;59.58
36138;BME280;67787;50.074;21.904;2023-04-23T05:29:06;98849.82;;;8.13;59.71
36138;BME280;67787;50.074;21.904;2023-04-23T05:31:34;98848.61;;;8.23;59.68
36138;BME280;67787;50.074;21.904;2023-04-23T05:34:03;98845.73;;;8.32;59.64
36138;BME280;67787;50.074;21.904;2023-04-23T05:36:30;98849.00;;;8.41;59.44
36138;BME280;67787;50.074;21.904;2023-04-23T05:38:59;98847.25;;;8.49;59.60
36138;BME280;67787;50.074;21.904;2023-04-23T05:41:27;98850.06;;;8.57;59.73
36138;BME280;67787;50.074;21.904;2023-04-23T05:43:55;98851.73;;;8.67;59.74
36138;BME280;67787;50.074;21.904;2023-04-23T05:46:23;98850.55;;;8.76;59.79
36138;BME280;67787;50.074;21.904;2023-04-23T05:48:51;98850.06;;;8.86;59.72
36138;BME280;67787;50.074;21.904;2023-04-23T05:51:20;98853.32;;;8.98;59.78
36138;BME280;67787;50.074;21.904;2023-04-23T05:53:49;98859.40;;;9.07;59.63
36138;BME280;67787;50.074;21.904;2023-04-23T05:56:17;98854.86;;;9.17;59.72
36138;BME280;67787;50.074;21.904;2023-04-23T05:58:45;98857.01;;;9.27;59.68
36138;BME280;67787;50.074;21.904;2023-04-23T06:01:13;98852.86;;;9.35;59.66
36138;BME280;67787;50.074;21.904;2023-04-23T06:03:41;98849.69;;;9.45;59.75
36138;BME280;67787;50.074;21.904;2023-04-23T06:06:13;98849.33;;;9.55;59.77
36138;BME280;67787;50.074;21.904;2023-04-23T06:08:41;98851.79;;;9.65;59.70
36138;BME280;67787;50.074;21.904;2023-04-23T06:11:09;98849.54;;;9.74;59.79
36138;BME280;67787;50.074;21.904;2023-04-23T06:13:37;98852.69;;;9.82;59.73
36138;BME280;67787;50.074;21.904;2023-04-23T06:16:10;98857.42;;;9.93;59.77
36138;BME280;67787;50.074;21.904;2023-04-23T06:18:38;98855.67;;;10.02;59.73
36138;BME280;67787;50.074;21.904;2023-04-23T06:21:07;98852.98;;;10.09;59.73
36138;BME280;67787;50.074;21.904;2023-04-23T06:23:35;98854.67;;;10.18;59.75
36138;BME280;67787;50.074;21.904;2023-04-23T06:26:03;98854.78;;;10.26;59.69
36138;BME280;67787;50.074;21.904;2023-04-23T06:28:32;98850.18;;;10.36;59.77
36138;BME280;67787;50.074;21.904;2023-04-23T06:31:00;98850.47;;;10.44;59.73
36138;BME280;67787;50.074;21.904;2023-04-23T06:33:29;98850.08;;;10.52;59.75
36138;BME280;67787;50.074;21.904;2023-04-23T06:35:57;98851.39;;;10.62;59.76
36138;BME280;67787;50.074;21.904;2023-04-23T06:38:25;98847.84;;;10.72;59.69
36138;BME280;67787;50.074;21.904;2023-04-23T06:40:58;98841.01;;;10.78;59.67
36138;BME280;67787;50.074;21.904;2023-04-23T06:43:29;98841.16;;;10.87;59.61
36138;BME280;67787;50.074;21.904;2023-04-23T06:45:57;98841.54;;;10.96;59.65
36138;BME280;67787;50.074;21.904;2023-04-23T06:48:26;98840.13;;;11.05;59.67
36138;BME280;67787;50.074;21.904;2023-04-23T06:50:54;98837.33;;;11.16;59.64
36138;BME280;67787;50.074;21.904;2023-04-23T06:53:22;98841.15;;;11.26;59.59
36138;BME280;67787;50.074;21.904;2023-04-23T06:55:50;98838.21;;;11.35;59.54
36138;BME280;67787;50.074;21.904;2023-04-23T06:58:18;98836.81;;;11.47;59.60
36138;BME280;67787;50.074;21.904;2023-04-23T07:00:45;98834.54;;;11.58;59.56
36138;BME280;67787;50.074;21.904;2023-04-23T07:03:14;98836.02;;;11.69;59.51
36138;BME280;67787;50.074;21.904;2023-04-23T07:05:42;98836.84;;;11.83;59.54
36138;BME280;67787;50.074;21.904;2023-04-23T07:08:10;98834.31;;;11.94;59.47
36138;BME280;67787;50.074;21.904;2023-04-23T07:10:38;98833.19;;;12.02;59.28
36138;BME280;67787;50.074;21.904;2023-04-23T07:13:06;98834.50;;;12.12;59.30
36138;BME280;67787;50.074;21.904;2023-04-23T07:15:33;98837.02;;;12.23;59.35
36138;BME280;67787;50.074;21.904;2023-04-23T07:18:03;98831.63;;;12.31;59.26
36138;BME280;67787;50.074;21.904;2023-04-23T07:20:31;98832.64;;;12.39;59.33
36138;BME280;67787;50.074;21.904;2023-04-23T07:22:59;98831.72;;;12.47;59.24
36138;BME280;67787;50.074;21.904;2023-04-23T07:25:27;98834.47;;;12.55;59.19
36138;BME280;67787;50.074;21.904;2023-04-23T07:27:55;98831.20;;;12.62;59.14
36138;BME280;67787;50.074;21.904;2023-04-23T07:30:24;98828.70;;;12.71;59.19
36138;BME280;67787;50.074;21.904;2023-04-23T07:32:53;98829.84;;;12.83;59.12
36138;BME280;67787;50.074;21.904;2023-04-23T07:35:22;98827.75;;;12.92;59.16
36138;BME280;67787;50.074;21.904;2023-04-23T07:37:50;98829.45;;;13.00;59.20
36138;BME280;67787;50.074;21.904;2023-04-23T07:40:21;98827.83;;;13.06;58.84
36138;BME280;67787;50.074;21.904;2023-04-23T07:42:50;98823.39;;;13.10;58.99
36138;BME280;67787;50.074;21.904;2023-04-23T07:45:18;98824.27;;;13.17;59.14
36138;BME280;67787;50.074;21.904;2023-04-23T07:47:48;98829.10;;;13.26;58.96
36138;BME280;67787;50.074;21.904;2023-04-23T07:50:16;98822.52;;;13.32;58.97
36138;BME280;67787;50.074;21.904;2023-04-23T07:52:44;98821.46;;;13.41;59.02
36138;BME280;67787;50.074;21.904;2023-04-23T07:55:12;98815.71;;;13.51;59.06
36138;BME280;67787;50.074;21.904;2023-04-23T07:57:40;98817.67;;;13.60;58.98
36138;BME280;67787;50.074;21.904;2023-04-23T08:00:08;98815.58;;;13.65;58.94
36138;BME280;67787;50.074;21.904;2023-04-23T08:02:37;98808.08;;;13.71;58.84
36138;BME280;67787;50.074;21.904;2023-04-23T08:05:06;98810.63;;;13.79;58.77
36138;BME280;67787;50.074;21.904;2023-04-23T08:07:34;98811.73;;;13.90;58.84
36138;BME280;67787;50.074;21.904;2023-04-23T08:10:03;98814.52;;;13.99;58.71
36138;BME280;67787;50.074;21.904;2023-04-23T08:12:32;98814.03;;;14.06;58.59
36138;BME280;67787;50.074;21.904;2023-04-23T08:15:03;98816.60;;;14.11;58.38
36138;BME280;67787;50.074;21.904;2023-04-23T08:17:31;98815.14;;;14.16;58.32
36138;BME280;67787;50.074;21.904;2023-04-23T08:19:59;98815.50;;;14.15;58.25
36138;BME280;67787;50.074;21.904;2023-04-23T08:22:28;98813.60;;;14.17;58.27
36138;BME280;67787;50.074;21.904;2023-04-23T08:24:55;98814.21;;;14.18;58.35
36138;BME280;67787;50.074;21.904;2023-04-23T08:27:23;98817.00;;;14.25;58.39
36138;BME280;67787;50.074;21.904;2023-04-23T08:29:51;98813.61;;;14.36;58.30
36138;BME280;67787;50.074;21.904;2023-04-23T08:32:19;98813.86;;;14.45;58.13
36138;BME280;67787;50.074;21.904;2023-04-23T08:34:48;98812.99;;;14.53;58.14
36138;BME280;67787;50.074;21.904;2023-04-23T08:37:15;98812.55;;;14.63;57.95
36138;BME280;67787;50.074;21.904;2023-04-23T08:39:57;98806.29;;;14.69;57.87
36138;BME280;67787;50.074;21.904;2023-04-23T08:42:45;98805.75;;;14.71;57.81
36138;BME280;67787;50.074;21.904;2023-04-23T08:45:16;98802.19;;;14.77;57.81
36138;BME280;67787;50.074;21.904;2023-04-23T08:47:44;98800.32;;;14.80;57.66
36138;BME280;67787;50.074;21.904;2023-04-23T08:50:14;98799.54;;;14.81;57.35
36138;BME280;67787;50.074;21.904;2023-04-23T08:52:49;98798.22;;;14.76;57.22
36138;BME280;67787;50.074;21.904;2023-04-23T08:55:21;98798.30;;;14.77;57.51
36138;BME280;67787;50.074;21.904;2023-04-23T08:57:50;98801.50;;;14.83;57.35
36138;BME280;67787;50.074;21.904;2023-04-23T09:00:19;98798.23;;;14.83;57.25
36138;BME280;67787;50.074;21.904;2023-04-23T09:02:48;98796.07;;;14.83;57.16
36138;BME280;67787;50.074;21.904;2023-04-23T09:05:17;98793.61;;;14.89;57.35
36138;BME280;67787;50.074;21.904;2023-04-23T09:07:45;98788.46;;;15.04;57.44
36138;BME280;67787;50.074;21.904;2023-04-23T09:10:13;98790.68;;;15.18;57.34
36138;BME280;67787;50.074;21.904;2023-04-23T09:12:45;98787.30;;;15.23;57.13
36138;BME280;67787;50.074;21.904;2023-04-23T09:15:15;98785.71;;;15.25;56.91
36138;BME280;67787;50.074;21.904;2023-04-23T09:17:45;98783.23;;;15.25;56.87
36138;BME280;67787;50.074;21.904;2023-04-23T09:20:13;98783.54;;;15.34;57.04
36138;BME280;67787;50.074;21.904;2023-04-23T09:25:16;98779.03;;;15.53;56.74
36138;BME280;67787;50.074;21.904;2023-04-23T09:27:45;98777.45;;;15.57;56.62
36138;BME280;67787;50.074;21.904;2023-04-23T09:30:15;98774.48;;;15.58;56.38
36138;BME280;67787;50.074;21.904;2023-04-23T09:32:44;98775.73;;;15.62;56.60
36138;BME280;67787;50.074;21.904;2023-04-23T09:35:17;98772.84;;;15.73;56.59
36138;BME280;67787;50.074;21.904;2023-04-23T09:37:50;98772.75;;;15.81;56.52
36138;BME280;67787;50.074;21.904;2023-04-23T09:40:22;98770.60;;;15.89;56.36
36138;BME280;67787;50.074;21.904;2023-04-23T09:42:51;98767.67;;;15.95;56.35
36138;BME280;67787;50.074;21.904;2023-04-23T09:45:22;98765.92;;;16.02;56.23
36138;BME280;67787;50.074;21.904;2023-04-23T09:47:54;98764.15;;;16.01;55.89
36138;BME280;67787;50.074;21.904;2023-04-23T09:50:33;98763.71;;;16.01;55.88
36138;BME280;67787;50.074;21.904;2023-04-23T09:53:02;98759.46;;;15.98;55.83
36138;BME280;67787;50.074;21.904;2023-04-23T09:55:39;98760.71;;;16.00;55.62
36138;BME280;67787;50.074;21.904;2023-04-23T09:58:12;98756.70;;;16.08;55.83
36138;BME280;67787;50.074;21.904;2023-04-23T10:00:41;98755.07;;;16.10;55.59
36138;BME280;67787;50.074;21.904;2023-04-23T10:03:09;98754.00;;;16.12;55.38
36138;BME280;67787;50.074;21.904;2023-04-23T10:05:40;98749.92;;;16.13;55.42
36138;BME280;67787;50.074;21.904;2023-04-23T10:08:12;98746.02;;;16.18;55.47
36138;BME280;67787;50.074;21.904;2023-04-23T10:10:43;98739.69;;;16.30;55.55
36138;BME280;67787;50.074;21.904;2023-04-23T10:13:16;98736.87;;;16.38;55.28
36138;BME280;67787;50.074;21.904;2023-04-23T10:15:47;98733.38;;;16.39;55.14
36138;BME280;67787;50.074;21.904;2023-04-23T10:18:15;98729.12;;;16.40;55.25
36138;BME280;67787;50.074;21.904;2023-04-23T10:20:43;98732.58;;;16.49;55.01
36138;BME280;67787;50.074;21.904;2023-04-23T10:23:13;98731.58;;;16.51;54.94
36138;BME280;67787;50.074;21.904;2023-04-23T10:25:41;98729.23;;;16.57;54.93
36138;BME280;67787;50.074;21.904;2023-04-23T10:28:09;98725.50;;;16.57;54.54
36138;BME280;67787;50.074;21.904;2023-04-23T10:30:39;98721.21;;;16.51;54.49
36138;BME280;67787;50.074;21.904;2023-04-23T10:33:11;98719.23;;;16.45;54.58
36138;BME280;67787;50.074;21.904;2023-04-23T10:35:56;98715.38;;;16.45;54.45
36138;BME280;67787;50.074;21.904;2023-04-23T10:38:25;98717.48;;;16.49;54.44
36138;BME280;67787;50.074;21.904;2023-04-23T10:40:55;98717.04;;;16.57;54.31
36138;BME280;67787;50.074;21.904;2023-04-23T10:43:25;98714.38;;;16.59;53.88
36138;BME280;67787;50.074;21.904;2023-04-23T10:45:53;98708.40;;;16.59;53.83
36138;BME280;67787;50.074;21.904;2023-04-23T10:48:21;98711.66;;;16.59;53.88
36138;BME280;67787;50.074;21.904;2023-04-23T10:50:56;98708.36;;;16.59;53.70
36138;BME280;67787;50.074;21.904;2023-04-23T10:53:45;98706.08;;;16.64;53.52
36138;BME280;67787;50.074;21.904;2023-04-23T10:56:14;98704.79;;;16.66;53.47
36138;BME280;67787;50.074;21.904;2023-04-23T10:58:47;98701.04;;;16.71;53.58
36138;BME280;67787;50.074;21.904;2023-04-23T11:01:16;98699.55;;;16.88;53.60
36138;BME280;67787;50.074;21.904;2023-04-23T11:03:44;98696.91;;;16.94;53.22
36138;BME280;67787;50.074;21.904;2023-04-23T11:06:18;98695.32;;;16.98;53.22
36138;BME280;67787;50.074;21.904;2023-04-23T11:08:51;98698.11;;;17.00;52.96
36138;BME280;67787;50.074;21.904;2023-04-23T11:11:38;98694.48;;;17.01;52.84
36138;BME280;67787;50.074;21.904;2023-04-23T11:14:11;98693.45;;;17.00;52.83
36138;BME280;67787;50.074;21.904;2023-04-23T11:16:42;98692.25;;;17.05;52.91
36138;BME280;67787;50.074;21.904;2023-04-23T11:19:10;98687.65;;;17.11;52.86
36138;BME280;67787;50.074;21.904;2023-04-23T11:24:35;98684.98;;;17.23;52.67
36138;BME280;67787;50.074;21.904;2023-04-23T11:27:05;98678.71;;;17.23;52.45
36138;BME280;67787;50.074;21.904;2023-04-23T11:29:35;98679.02;;;17.30;52.77
36138;BME280;67787;50.074;21.904;2023-04-23T11:32:05;98679.48;;;17.36;52.35
36138;BME280;67787;50.074;21.904;2023-04-23T11:34:38;98676.82;;;17.37;52.25
36138;BME280;67787;50.074;21.904;2023-04-23T11:37:12;98675.67;;;17.41;52.21
36138;BME280;67787;50.074;21.904;2023-04-23T11:39:41;98674.98;;;17.43;51.84
36138;BME280;67787;50.074;21.904;2023-04-23T11:42:15;98671.65;;;17.40;51.83
36138;BME280;67787;50.074;21.904;2023-04-23T11:44:44;98670.39;;;17.49;52.10
36138;BME280;67787;50.074;21.904;2023-04-23T11:47:14;98669.16;;;17.60;51.67
36138;BME280;67787;50.074;21.904;2023-04-23T11:49:47;98669.70;;;17.78;51.80
36138;BME280;67787;50.074;21.904;2023-04-23T11:52:16;98666.40;;;17.93;51.67
36138;BME280;67787;50.074;21.904;2023-04-23T11:54:43;98664.17;;;18.00;51.46
36138;BME280;67787;50.074;21.904;2023-04-23T11:57:11;98661.88;;;18.05;51.52
36138;BME280;67787;50.074;21.904;2023-04-23T11:59:41;98661.83;;;18.08;51.47
36138;BME280;67787;50.074;21.904;2023-04-23T12:02:09;98663.34;;;18.18;51.27
36138;BME280;67787;50.074;21.904;2023-04-23T12:04:37;98657.66;;;18.18;51.18
36138;BME280;67787;50.074;21.904;2023-04-23T12:07:08;98655.63;;;18.19;50.43
36138;BME280;67787;50.074;21.904;2023-04-23T12:09:57;98649.34;;;18.22;50.70
36138;BME280;67787;50.074;21.904;2023-04-23T12:12:32;98650.52;;;18.23;50.36
36138;BME280;67787;50.074;21.904;2023-04-23T12:15:05;98650.73;;;18.26;50.12
36138;BME280;67787;50.074;21.904;2023-04-23T12:17:33;98647.58;;;18.30;49.83
36138;BME280;67787;50.074;21.904;2023-04-23T12:20:04;98641.42;;;18.27;49.78
36138;BME280;67787;50.074;21.904;2023-04-23T12:22:33;98641.09;;;18.30;49.71
36138;BME280;67787;50.074;21.904;2023-04-23T12:25:04;98640.10;;;18.35;48.61
36138;BME280;67787;50.074;21.904;2023-04-23T12:27:40;98635.54;;;18.35;49.56
36138;BME280;67787;50.074;21.904;2023-04-23T12:30:09;98634.25;;;18.29;49.70
36138;BME280;67787;50.074;21.904;2023-04-23T12:32:40;98630.63;;;18.24;49.47
36138;BME280;67787;50.074;21.904;2023-04-23T12:35:08;98630.73;;;18.27;49.15
36138;BME280;67787;50.074;21.904;2023-04-23T12:37:37;98621.90;;;18.27;48.87
36138;BME280;67787;50.074;21.904;2023-04-23T12:40:05;98624.10;;;18.35;49.41
36138;BME280;67787;50.074;21.904;2023-04-23T12:42:33;98621.02;;;18.41;49.33
36138;BME280;67787;50.074;21.904;2023-04-23T12:45:07;98616.11;;;18.40;49.10
36138;BME280;67787;50.074;21.904;2023-04-23T12:47:36;98616.92;;;18.39;48.96
36138;BME280;67787;50.074;21.904;2023-04-23T12:50:05;98614.96;;;18.39;48.23
36138;BME280;67787;50.074;21.904;2023-04-23T12:52:33;98608.37;;;18.39;48.04
36138;BME280;67787;50.074;21.904;2023-04-23T12:55:01;98605.63;;;18.36;48.43
36138;BME280;67787;50.074;21.904;2023-04-23T12:57:32;98600.90;;;18.29;48.37
36138;BME280;67787;50.074;21.904;2023-04-23T12:59:59;98599.99;;;18.29;48.43
36138;BME280;67787;50.074;21.904;2023-04-23T13:02:27;98597.32;;;18.33;48.45
36138;BME280;67787;50.074;21.904;2023-04-23T13:04:56;98594.98;;;18.37;48.19
36138;BME280;67787;50.074;21.904;2023-04-23T13:07:27;98590.14;;;18.37;48.26
36138;BME280;67787;50.074;21.904;2023-04-23T13:09:55;98590.93;;;18.41;48.00
36138;BME280;67787;50.074;21.904;2023-04-23T13:12:26;98589.25;;;18.41;48.01